Etusivu
METAR-TAF:

METAR-TAF

Lentoasemat :

Belgradin Nikola Teslan lentoasema

Belgrad, Serbia

Leveyspiiri: 44-49N, Pituuspiiri: 020-17E, korkeus merenpinnasta: 96 m

Tämänhetkinen sää

Tämä raportti tehtiin 34 minuuttia sitten, kello 14.00 UTC
Tuuli 8 kn kaakosta
Lämpötila 24°C
Kosteus 34%
Ilmanpaine 1021 hPa
Näkyvyys 10 km tai enemmän
ei pilviä alle 1500 m:ssä eikä cumulonimbus-pilviä

METAR: LYBE 161400Z 13008KT CAVOK 24/07 Q1021 NOSIG

Aika: 16:34 (14:34 UTC)

Sääennuste

Tämä raportti tehtiin 3 tuntia ja 34 minuuttia sitten, kello 11.00 UTC
Ennuste voimassa 16. päivästä klo 12 UTC - 17. päivään klo 12 UTC
Tuuli 9 kn kaakosta
Näkyvyys 10 km tai enemmän
ei pilviä alle 1500 m:ssä eikä cumulonimbus-pilviä

TAF: LYBE 161100Z 1612/1712 13009KT CAVOK TX24/1613Z TN09/1705Z

Säähavainnot ja -ennusteet yli 4000 lentoasemalta (METAR- ja TAF-raportit).

Käytössä olevat sääasemat on merkitty karttaan keltaisilla ja punaisilla pisteillä.

Aseta hiiri pisteen päälle nähdäksesi sääaseman nimen.

Klikkaa sitten nähdäksesi säähavainnot ja -ennusteet.

Kartan vaihtaminen: klikkaa mustalla rastilla varustettuja vihreitä pisteitä, niin voit zoomata sisään; viivalla varustettua vihreää pistettä, niin voit zoomata ulos tai vihreitä nuolia, niin pääset viereisille kartoille.


METAR-TAF: